Terminal Aerodrome Forecast
Issued by NWS

Home | Current Version | Previous Version | Text Only | Print | Product List | Glossary On
Versions: 1 2 3 4 5 6 7 8 9 10 11 12 13 14
000
FTUS41 KBTV 120500
TAFSLK
TAF
KSLK 120521Z 1206/1306 00000KT 6SM BR SCT002 SCT250
      TEMPO 1207/1210 2SM BR BKN002
     FM121200 23007KT P6SM SCT250
     FM130200 00000KT P6SM SCT250=

USA.gov is the U.S. government's official web portal to all federal, state and local government web resources and services.